Emine Anne — TCBX9 — position and weather

sailwx.info

Track history (hours):
 
Tides and Currents Weather Stations Pressure Air Temp Water Temp Dewpoint Dewpoint Depression Visibility Wind Speed Wind Dir Waves Ship Positions

Emine Anne

Last reported at 2017-Jan-13 00:11 UTC. Time now 2017-Jan-18 18:12 UTC.
Position N 39°26' E 026°22'.

Length 69 m; draft 2.6 m.

Type: Cargo ship. MMSI: 271002305.

Date/timePositionNaut miles runAvg speedWind from/ knotsBaromVisibWave heightAir tempDewpointWater temp
2017-Jan-13 00:11N 39°26' E 026°22'5 8.2
2017-Jan-12 23:33N 39°23' E 026°27'9 9.2
2017-Jan-12 22:33N 39°15' E 026°33'10 9.5
2017-Jan-12 21:31N 39°07' E 026°41'8 8.8
2017-Jan-12 20:33N 38°59' E 026°44'15 3.8
2017-Jan-12 16:32N 38°46' E 026°55'0 0.0
2017-Jan-12 15:32N 38°46' E 026°55'0 0.0
2017-Jan-12 14:33N 38°46' E 026°55'0 0.0
2017-Jan-12 13:33N 38°46' E 026°55'0 0.0
2017-Jan-12 12:33N 38°46' E 026°55'0 0.0
2017-Jan-12 11:33N 38°46' E 026°55'0 0.0
2017-Jan-12 10:33N 38°46' E 026°55'0 0.0
2017-Jan-12 09:31N 38°46' E 026°55'0 0.0
2017-Jan-12 08:16N 38°46' E 026°55'0 0.0
2017-Jan-12 07:32N 38°46' E 026°55'0 0.0
2017-Jan-12 06:33N 38°46' E 026°55'0 0.0
2017-Jan-12 05:33N 38°46' E 026°55'0 0.0
2017-Jan-12 04:33N 38°46' E 026°55'0 0.0
2017-Jan-12 03:34N 38°46' E 026°55'0 0.0
2017-Jan-12 02:34N 38°46' E 026°55'0 0.0
2017-Jan-12 01:33N 38°46' E 026°55'0 0.0
2017-Jan-12 00:34N 38°46' E 026°55'0 0.0
2017-Jan-11 23:33N 38°46' E 026°55'0 0.0
2017-Jan-11 21:05N 38°46' E 026°55'0 0.0
2017-Jan-11 15:32N 38°46' E 026°55'0 0.0
2017-Jan-11 14:33N 38°46' E 026°55'0 0.0
2017-Jan-11 13:34N 38°46' E 026°55'0 0.0
2017-Jan-11 12:33N 38°46' E 026°55'0 0.0
2017-Jan-11 11:34N 38°46' E 026°55'0 0.0
2017-Jan-11 10:33N 38°46' E 026°55'1 0.9
2017-Jan-11 09:34N 38°47' E 026°55'2 1.5
2017-Jan-11 08:31N 38°48' E 026°54'0 0.0
2017-Jan-11 07:32N 38°48' E 026°54'0 0.1
2017-Jan-11 06:29N 38°48' E 026°54'2 0.1
2017-Jan-10 13:33N 38°46' E 026°55'0 0.0
2017-Jan-10 12:33N 38°46' E 026°55'0 0.0
2017-Jan-10 11:34N 38°46' E 026°55'2 2.2
2017-Jan-10 10:34N 38°48' E 026°54'0 0.1
2017-Jan-10 09:32N 38°48' E 026°54'0 0.0
2017-Jan-10 08:27N 38°48' E 026°54'0 0.0
2017-Jan-10 07:33N 38°48' E 026°54'0 0.0
2017-Jan-10 06:32N 38°48' E 026°54'0 0.0
2017-Jan-10 05:32N 38°48' E 026°54'0 0.0
2017-Jan-10 04:28N 38°48' E 026°54'0 0.0
2017-Jan-10 03:28N 38°48' E 026°54'1 1.4
2017-Jan-10 02:33N 38°48' E 026°52'6 6.4
2017-Jan-10 01:33N 38°54' E 026°48'15 7.8
2017-Jan-09 23:33N 39°08' E 026°42'8 7.7
2017-Jan-09 22:33N 39°14' E 026°35'  
Track history (hours):
 
Tides and Currents Weather Stations Pressure Air Temp Water Temp Dewpoint Dewpoint Depression Visibility Wind Speed Wind Dir Waves Ship Positions

Emine Anne

Last reported at 2017-Jan-13 00:11 UTC. Time now 2017-Jan-18 18:12 UTC.
Position N 39°26' E 026°22'.

Length 69 m; draft 2.6 m.

Type: Cargo ship. MMSI: 271002305.

Date/timePositionNaut miles runAvg speedWind from/ knotsBaromVisibWave heightAir tempDewpointWater temp
2017-Jan-13 00:11N 39°26' E 026°22'5 8.2
2017-Jan-12 23:33N 39°23' E 026°27'9 9.2
2017-Jan-12 22:33N 39°15' E 026°33'10 9.5
2017-Jan-12 21:31N 39°07' E 026°41'8 8.8
2017-Jan-12 20:33N 38°59' E 026°44'15 3.8
2017-Jan-12 16:32N 38°46' E 026°55'0 0.0
2017-Jan-12 15:32N 38°46' E 026°55'0 0.0
2017-Jan-12 14:33N 38°46' E 026°55'0 0.0
2017-Jan-12 13:33N 38°46' E 026°55'0 0.0
2017-Jan-12 12:33N 38°46' E 026°55'0 0.0
2017-Jan-12 11:33N 38°46' E 026°55'0 0.0
2017-Jan-12 10:33N 38°46' E 026°55'0 0.0
2017-Jan-12 09:31N 38°46' E 026°55'0 0.0
2017-Jan-12 08:16N 38°46' E 026°55'0 0.0
2017-Jan-12 07:32N 38°46' E 026°55'0 0.0
2017-Jan-12 06:33N 38°46' E 026°55'0 0.0
2017-Jan-12 05:33N 38°46' E 026°55'0 0.0
2017-Jan-12 04:33N 38°46' E 026°55'0 0.0
2017-Jan-12 03:34N 38°46' E 026°55'0 0.0
2017-Jan-12 02:34N 38°46' E 026°55'0 0.0
2017-Jan-12 01:33N 38°46' E 026°55'0 0.0
2017-Jan-12 00:34N 38°46' E 026°55'0 0.0
2017-Jan-11 23:33N 38°46' E 026°55'0 0.0
2017-Jan-11 21:05N 38°46' E 026°55'0 0.0
2017-Jan-11 15:32N 38°46' E 026°55'0 0.0
2017-Jan-11 14:33N 38°46' E 026°55'0 0.0
2017-Jan-11 13:34N 38°46' E 026°55'0 0.0
2017-Jan-11 12:33N 38°46' E 026°55'0 0.0
2017-Jan-11 11:34N 38°46' E 026°55'0 0.0
2017-Jan-11 10:33N 38°46' E 026°55'1 0.9
2017-Jan-11 09:34N 38°47' E 026°55'2 1.5
2017-Jan-11 08:31N 38°48' E 026°54'0 0.0
2017-Jan-11 07:32N 38°48' E 026°54'0 0.1
2017-Jan-11 06:29N 38°48' E 026°54'2 0.1
2017-Jan-10 13:33N 38°46' E 026°55'0 0.0
2017-Jan-10 12:33N 38°46' E 026°55'0 0.0
2017-Jan-10 11:34N 38°46' E 026°55'2 2.2
2017-Jan-10 10:34N 38°48' E 026°54'0 0.1
2017-Jan-10 09:32N 38°48' E 026°54'0 0.0
2017-Jan-10 08:27N 38°48' E 026°54'0 0.0
2017-Jan-10 07:33N 38°48' E 026°54'0 0.0
2017-Jan-10 06:32N 38°48' E 026°54'0 0.0
2017-Jan-10 05:32N 38°48' E 026°54'0 0.0
2017-Jan-10 04:28N 38°48' E 026°54'0 0.0
2017-Jan-10 03:28N 38°48' E 026°54'1 1.4
2017-Jan-10 02:33N 38°48' E 026°52'6 6.4
2017-Jan-10 01:33N 38°54' E 026°48'15 7.8
2017-Jan-09 23:33N 39°08' E 026°42'8 7.7
2017-Jan-09 22:33N 39°14' E 026°35'  

Dump ship's entire track history